Time;durP1;ratioP1;P1;durP2;ratioP2;P2;SDS_P1;SDS_P2;PMS_P1;PMS_P2;Temp;Humidity;BMP_temperature;BMP_pressure;BME280_temperature;BME280_humidity;BME280_pressure;Samples;Min_cycle;Max_cycle;Signal;HPM_P1;HPM_P2
2022/01/22 00:02:23;;;;;;;;;;;6.70;99.90;;;;;;5134285;27;19907;-78
2022/01/22 00:04:49;;;;;;;;;;;6.70;99.90;;;;;;5134789;27;19969;-78
2022/01/22 00:07:15;;;;;;;;;;;6.70;99.90;;;;;;5134310;27;19911;-80
2022/01/22 00:09:47;;;;;;;;;;;6.70;99.90;;;;;;5134365;27;19963;-79
2022/01/22 00:12:24;;;;;;;;;;;6.80;99.90;;;;;;5116692;27;19978;-77
2022/01/22 00:14:49;;;;;;;;;;;6.80;99.90;;;;;;5134585;27;19907;-79
2022/01/22 00:17:15;;;;;;;;;;;6.70;99.90;;;;;;5134250;27;19908;-77
2022/01/22 00:19:40;;;;;;;;;;;6.80;99.90;;;;;;5134488;27;20014;-78
2022/01/22 00:22:06;;;;;;;;;;;6.80;99.90;;;;;;5134377;27;20269;-78
2022/01/22 00:24:37;;;;;;;;;;;6.80;99.90;;;;;;5134348;27;19914;-77
2022/01/22 00:27:03;;;;;;;;;;;6.80;99.90;;;;;;5135058;27;19907;-78
2022/01/22 00:29:29;;;;;;;;;;;6.80;99.90;;;;;;5134477;27;19915;-78
2022/01/22 00:31:54;;;;;;;;;;;6.80;99.90;;;;;;5135873;27;19914;-78
2022/01/22 00:34:20;;;;;;;;;;;6.80;99.90;;;;;;5134597;27;20356;-77
2022/01/22 00:36:46;;;;;;;;;;;6.80;99.90;;;;;;5134275;27;19911;-78
2022/01/22 00:39:11;;;;;;;;;;;6.80;99.90;;;;;;5134600;27;19956;-77
2022/01/22 00:41:37;;;;;;;;;;;6.80;99.90;;;;;;5115955;27;19934;-77
2022/01/22 00:44:03;;;;;;;;;;;6.80;99.90;;;;;;5134884;27;19922;-78
2022/01/22 00:46:28;;;;;;;;;;;6.80;99.90;;;;;;5133951;27;19914;-78
2022/01/22 00:48:54;;;;;;;;;;;6.80;99.90;;;;;;5134460;27;20241;-78
2022/01/22 00:51:20;;;;;;;;;;;6.80;99.90;;;;;;5133651;27;20002;-77
2022/01/22 00:53:46;;;;;;;;;;;6.80;99.90;;;;;;5134707;27;20364;-78
2022/01/22 00:56:13;;;;;;;;;;;6.80;99.90;;;;;;5134246;27;19999;-76
2022/01/22 00:58:39;;;;;;;;;;;6.80;99.90;;;;;;5134138;27;19907;-77
2022/01/22 01:01:04;;;;;;;;;;;6.80;99.90;;;;;;5134099;27;20006;-77
2022/01/22 01:03:33;;;;;;;;;;;6.80;99.90;;;;;;5133629;27;19915;-76
2022/01/22 01:05:59;;;;;;;;;;;6.80;99.90;;;;;;5134230;27;19911;-77
2022/01/22 01:08:27;;;;;;;;;;;6.80;99.90;;;;;;5133484;27;20414;-77
2022/01/22 01:10:53;;;;;;;;;;;6.80;99.90;;;;;;5133188;27;20009;-76
2022/01/22 01:13:19;;;;;;;;;;;6.80;99.90;;;;;;5133156;27;19977;-77
2022/01/22 01:15:58;;;;;;;;;;;6.80;99.90;;;;;;5134154;27;20371;-77
2022/01/22 01:32:16;;;;;;;;;;;6.80;99.90;;;;;;5133710;27;19995;-79
2022/01/22 01:34:44;;;;;;;;;;;6.80;99.90;;;;;;5133920;27;19908;-79
2022/01/22 01:37:15;;;;;;;;;;;6.90;99.90;;;;;;5133507;27;19908;-79
2022/01/22 01:39:43;;;;;;;;;;;6.90;99.90;;;;;;5133185;27;20356;-78
2022/01/22 01:42:13;;;;;;;;;;;6.80;99.90;;;;;;5133629;27;20260;-78
2022/01/22 01:44:39;;;;;;;;;;;6.80;99.90;;;;;;5132623;27;19914;-77
2022/01/22 01:47:07;;;;;;;;;;;6.80;99.90;;;;;;5133381;27;19956;-78
2022/01/22 01:49:33;;;;;;;;;;;6.80;99.90;;;;;;5132290;27;19926;-77
2022/01/22 01:52:02;;;;;;;;;;;6.80;99.90;;;;;;5133151;27;19912;-78
2022/01/22 01:54:58;;;;;;;;;;;6.80;99.90;;;;;;5132669;27;19912;-78
2022/01/22 02:00:20;;;;;;;;;;;6.80;99.90;;;;;;5118834;28;19960;-75
2022/01/22 02:02:47;;;;;;;;;;;6.70;99.90;;;;;;5133407;28;20428;-76
2022/01/22 02:05:13;;;;;;;;;;;6.70;99.90;;;;;;5133071;28;19908;-76
2022/01/22 02:07:41;;;;;;;;;;;6.70;99.90;;;;;;5114325;28;20520;-76
2022/01/22 02:10:08;;;;;;;;;;;6.80;99.90;;;;;;5133127;28;19973;-76
2022/01/22 02:12:59;;;;;;;;;;;6.70;99.90;;;;;;5132682;28;19908;-77
2022/01/22 02:23:46;;;;;;;;;;;6.70;99.90;;;;;;5136510;27;19956;-77
2022/01/22 02:26:12;;;;;;;;;;;6.70;99.90;;;;;;5137683;27;19959;-77
2022/01/22 02:28:38;;;;;;;;;;;6.70;99.90;;;;;;5136497;27;19912;-77
2022/01/22 02:31:12;;;;;;;;;;;6.70;99.90;;;;;;5137141;27;19915;-77
2022/01/22 02:41:19;;;;;;;;;;;6.60;99.90;;;;;;5137284;27;19959;-77
2022/01/22 02:43:46;;;;;;;;;;;6.60;99.90;;;;;;5136184;27;19954;-76
2022/01/22 02:46:15;;;;;;;;;;;6.60;99.90;;;;;;5137181;27;19918;-76
2022/01/22 02:48:41;;;;;;;;;;;6.60;99.90;;;;;;5135731;27;19915;-76
2022/01/22 02:51:06;;;;;;;;;;;6.60;99.90;;;;;;5137032;27;19922;-77
2022/01/22 02:53:32;;;;;;;;;;;6.60;99.90;;;;;;5135795;27;19947;-76
2022/01/22 02:55:58;;;;;;;;;;;6.50;99.90;;;;;;5136881;27;19908;-76
2022/01/22 02:58:24;;;;;;;;;;;6.60;99.90;;;;;;5136311;27;19907;-75
2022/01/22 03:00:50;;;;;;;;;;;6.50;99.90;;;;;;5136541;27;19965;-77
2022/01/22 03:03:15;;;;;;;;;;;6.50;99.90;;;;;;5136406;27;19942;-77
2022/01/22 03:05:41;;;;;;;;;;;6.50;99.90;;;;;;5135988;27;19915;-76
2022/01/22 03:08:09;;;;;;;;;;;6.50;99.90;;;;;;5136547;27;19911;-77
2022/01/22 03:10:36;;;;;;;;;;;6.50;99.90;;;;;;5135938;27;19911;-77
2022/01/22 03:29:17;;;;;;;;;;;6.30;99.90;;;;;;5136140;27;20351;-77
2022/01/22 03:31:43;;;;;;;;;;;6.30;99.90;;;;;;5135510;27;19916;-77
2022/01/22 03:34:09;;;;;;;;;;;6.20;99.90;;;;;;5135270;27;20301;-76
2022/01/22 03:36:35;;;;;;;;;;;6.20;99.90;;;;;;5134662;27;19916;-76
2022/01/22 03:39:03;;;;;;;;;;;6.20;99.90;;;;;;5136015;27;19958;-76
2022/01/22 03:41:28;;;;;;;;;;;6.30;99.90;;;;;;5116516;27;19908;-77
2022/01/22 03:43:54;;;;;;;;;;;6.30;99.90;;;;;;5136366;27;19908;-77
2022/01/22 03:46:20;;;;;;;;;;;6.30;99.90;;;;;;5136010;27;19907;-77
2022/01/22 03:48:46;;;;;;;;;;;6.30;99.90;;;;;;5135006;27;20506;-77
2022/01/22 03:51:12;;;;;;;;;;;6.30;99.90;;;;;;5135924;27;19967;-77
2022/01/22 03:53:38;;;;;;;;;;;6.30;99.90;;;;;;5134906;27;19914;-78
2022/01/22 03:56:05;;;;;;;;;;;6.30;99.90;;;;;;5135345;27;20284;-78
2022/01/22 03:58:32;;;;;;;;;;;6.30;99.90;;;;;;5134953;27;19915;-77
2022/01/22 04:02:02;;;;;;;;;;;6.30;99.90;;;;;;5135436;27;19911;-77
2022/01/22 04:03:56;;;;;;;;;;;6.20;99.90;;;;;;5125847;27;19914;-77
2022/01/22 04:09:06;;;;;;;;;;;6.10;99.90;;;;;;5135486;27;19912;-77
2022/01/22 04:11:35;;;;;;;;;;;6.10;99.90;;;;;;5134425;27;19915;-77
2022/01/22 04:14:03;;;;;;;;;;;6.20;99.90;;;;;;5135245;27;19934;-78
2022/01/22 04:16:30;;;;;;;;;;;6.10;99.90;;;;;;5134668;27;19914;-76
2022/01/22 04:27:11;;;;;;;;;;;6.20;99.90;;;;;;5135324;27;19956;-77
2022/01/22 04:29:37;;;;;;;;;;;6.20;99.90;;;;;;5134195;27;19920;-77
2022/01/22 04:32:03;;;;;;;;;;;6.20;99.90;;;;;;5135020;27;20021;-76
2022/01/22 04:34:28;;;;;;;;;;;6.20;99.90;;;;;;5144860;27;19907;-75
2022/01/22 04:36:54;;;;;;;;;;;6.20;99.90;;;;;;5148068;27;19908;-78
2022/01/22 04:39:22;;;;;;;;;;;6.20;99.90;;;;;;5137119;27;19938;-77
2022/01/22 04:41:47;;;;;;;;;;;6.20;99.90;;;;;;5134115;27;19916;-77
2022/01/22 04:44:13;;;;;;;;;;;6.20;99.90;;;;;;5134836;27;19994;-78
2022/01/22 04:57:17;;;;;;;;;;;6.30;99.90;;;;;;5134537;27;19918;-78
2022/01/22 04:59:43;;;;;;;;;;;6.30;99.90;;;;;;5133782;27;19911;-78
2022/01/22 05:02:09;;;;;;;;;;;6.30;99.90;;;;;;5116072;27;19907;-78
2022/01/22 05:04:34;;;;;;;;;;;6.30;99.90;;;;;;5133687;27;19921;-78
2022/01/22 05:07:00;;;;;;;;;;;6.30;99.90;;;;;;5115848;27;19911;-78
2022/01/22 05:09:25;;;;;;;;;;;6.30;99.90;;;;;;5134279;27;19915;-78
2022/01/22 05:11:51;;;;;;;;;;;6.30;99.90;;;;;;5133218;27;19939;-78
2022/01/22 05:14:17;;;;;;;;;;;6.30;99.90;;;;;;5134104;27;19950;-78
2022/01/22 05:16:43;;;;;;;;;;;6.30;99.90;;;;;;5133412;27;19943;-78
2022/01/22 05:19:14;;;;;;;;;;;6.30;99.90;;;;;;5134219;27;19955;-78
2022/01/22 05:21:41;;;;;;;;;;;6.30;99.90;;;;;;5133471;27;19907;-78
2022/01/22 05:24:08;;;;;;;;;;;6.30;99.90;;;;;;5133479;27;19915;-78
2022/01/22 05:39:24;;;;;;;;;;;6.20;99.90;;;;;;5133861;27;19951;-78
2022/01/22 05:41:50;;;;;;;;;;;6.20;99.90;;;;;;5133077;27;19914;-76
2022/01/22 05:44:15;;;;;;;;;;;6.20;99.90;;;;;;5133761;27;20272;-77
2022/01/22 05:46:41;;;;;;;;;;;6.20;99.90;;;;;;5132853;27;19976;-76
2022/01/22 05:49:07;;;;;;;;;;;6.20;99.90;;;;;;5133329;27;19931;-78
2022/01/22 05:51:33;;;;;;;;;;;6.20;99.90;;;;;;5133393;27;19908;-76
2022/01/22 06:01:53;;;;;;;;;;;6.20;99.90;;;;;;5112202;28;19968;-77
2022/01/22 06:04:19;;;;;;;;;;;6.20;99.90;;;;;;5113140;28;19912;-77
2022/01/22 06:06:44;;;;;;;;;;;6.20;99.90;;;;;;5111999;28;19955;-77
2022/01/22 06:09:10;;;;;;;;;;;6.20;99.90;;;;;;5116958;28;19916;-77
2022/01/22 06:12:03;;;;;;;;;;;6.20;99.90;;;;;;5112603;28;20044;-76
2022/01/22 06:14:28;;;;;;;;;;;6.20;99.90;;;;;;5112770;28;20265;-77
2022/01/22 06:16:54;;;;;;;;;;;6.20;99.90;;;;;;5112122;28;19908;-78
2022/01/22 06:19:19;;;;;;;;;;;6.20;99.90;;;;;;5112838;28;19908;-78
2022/01/22 06:21:45;;;;;;;;;;;6.30;99.90;;;;;;5111866;28;19908;-77
2022/01/22 06:24:12;;;;;;;;;;;6.20;99.90;;;;;;5094604;28;19908;-78
2022/01/22 06:26:38;;;;;;;;;;;6.30;99.90;;;;;;5112011;28;19915;-76
2022/01/22 06:29:04;;;;;;;;;;;6.30;99.90;;;;;;5112849;28;19915;-78
2022/01/22 06:31:30;;;;;;;;;;;6.30;99.90;;;;;;5112783;28;19915;-77
2022/01/22 06:33:57;;;;;;;;;;;6.30;99.90;;;;;;5111687;28;20482;-77
2022/01/22 06:36:22;;;;;;;;;;;6.30;99.90;;;;;;5120762;28;19918;-77
2022/01/22 06:38:48;;;;;;;;;;;6.30;99.90;;;;;;5132779;28;20010;-77
2022/01/22 06:43:57;;;;;;;;;;;6.40;99.90;;;;;;5132119;28;19910;-78
2022/01/22 06:46:23;;;;;;;;;;;6.40;99.90;;;;;;5133117;28;19907;-78
2022/01/22 06:48:49;;;;;;;;;;;6.40;99.90;;;;;;5131576;27;20206;-78
2022/01/22 06:51:14;;;;;;;;;;;6.40;99.90;;;;;;5133073;28;19998;-78
2022/01/22 06:53:40;;;;;;;;;;;6.40;99.90;;;;;;5132294;28;19908;-76
2022/01/22 06:56:08;;;;;;;;;;;6.40;99.90;;;;;;5133117;28;19956;-78
2022/01/22 06:58:33;;;;;;;;;;;6.40;99.90;;;;;;5132869;28;20336;-78
2022/01/22 07:00:59;;;;;;;;;;;6.40;99.90;;;;;;5132257;28;19904;-78
2022/01/22 07:03:25;;;;;;;;;;;6.40;99.90;;;;;;5132776;28;19907;-78
2022/01/22 07:05:50;;;;;;;;;;;6.40;99.90;;;;;;5132202;28;19907;-78
2022/01/22 07:08:16;;;;;;;;;;;6.40;99.90;;;;;;5115075;27;19953;-78
2022/01/22 07:10:41;;;;;;;;;;;6.50;99.90;;;;;;5117478;27;19912;-77
2022/01/22 07:13:07;;;;;;;;;;;6.50;99.90;;;;;;5136247;27;20410;-77
2022/01/22 07:15:32;;;;;;;;;;;6.50;99.90;;;;;;5136618;27;19912;-78
2022/01/22 07:17:58;;;;;;;;;;;6.50;99.90;;;;;;5135597;27;20364;-77
2022/01/22 07:20:29;;;;;;;;;;;6.50;99.90;;;;;;5136547;27;19911;-77
2022/01/22 07:23:15;;;;;;;;;;;6.50;99.90;;;;;;5117374;27;20261;-76
2022/01/22 07:25:41;;;;;;;;;;;6.50;99.90;;;;;;5117682;27;19999;-75
2022/01/22 07:28:06;;;;;;;;;;;6.50;99.90;;;;;;5135896;27;19964;-76
2022/01/22 07:30:32;;;;;;;;;;;6.50;99.90;;;;;;5117383;27;19911;-77
2022/01/22 07:32:58;;;;;;;;;;;6.50;99.90;;;;;;5135168;27;20022;-76
2022/01/22 07:35:23;;;;;;;;;;;6.50;99.90;;;;;;5136407;27;20314;-77
2022/01/22 07:37:49;;;;;;;;;;;6.50;99.90;;;;;;5134880;27;19911;-77
2022/01/22 07:40:15;;;;;;;;;;;6.50;99.90;;;;;;5117533;27;20360;-77
2022/01/22 07:42:41;;;;;;;;;;;6.50;99.90;;;;;;5135463;27;19908;-74
2022/01/22 07:45:08;;;;;;;;;;;6.50;99.90;;;;;;5135336;27;19938;-77
2022/01/22 07:47:34;;;;;;;;;;;6.50;99.90;;;;;;5135364;27;20249;-77
2022/01/22 07:50:00;;;;;;;;;;;6.50;99.90;;;;;;5135068;27;19919;-77
2022/01/22 07:52:26;;;;;;;;;;;6.50;99.90;;;;;;5135474;27;20348;-77
2022/01/22 07:54:51;;;;;;;;;;;6.50;99.90;;;;;;5135178;27;19914;-76
2022/01/22 07:57:17;;;;;;;;;;;6.50;99.90;;;;;;5135854;27;20014;-77
2022/01/22 07:59:42;;;;;;;;;;;6.50;99.90;;;;;;5134955;27;19994;-75
2022/01/22 08:02:08;;;;;;;;;;;6.50;99.90;;;;;;5135724;27;20344;-78
2022/01/22 08:04:34;;;;;;;;;;;6.50;99.90;;;;;;5135307;27;19907;-79
2022/01/22 08:07:00;;;;;;;;;;;6.50;99.90;;;;;;5134908;27;19911;-79
2022/01/22 08:09:26;;;;;;;;;;;6.60;99.90;;;;;;5135157;27;19915;-78
2022/01/22 08:11:51;;;;;;;;;;;6.50;99.90;;;;;;5133989;27;20007;-78
2022/01/22 08:14:17;;;;;;;;;;;6.50;99.90;;;;;;5135003;27;19912;-78
2022/01/22 08:16:52;;;;;;;;;;;6.50;99.90;;;;;;5134802;27;19914;-76
2022/01/22 08:19:17;;;;;;;;;;;6.60;99.90;;;;;;5134920;27;19911;-78
2022/01/22 08:21:44;;;;;;;;;;;6.60;99.90;;;;;;5134850;27;19976;-76
2022/01/22 08:24:10;;;;;;;;;;;6.60;99.90;;;;;;5134467;27;19972;-78
2022/01/22 08:26:41;;;;;;;;;;;6.50;99.90;;;;;;5138408;27;19907;-76
2022/01/22 08:29:06;;;;;;;;;;;6.60;99.90;;;;;;5134107;27;20106;-78
2022/01/22 08:36:44;;;;;;;;;;;6.60;99.90;;;;;;5134248;27;19919;-77
2022/01/22 08:39:10;;;;;;;;;;;6.60;99.90;;;;;;5142815;27;19907;-78
2022/01/22 08:41:36;;;;;;;;;;;6.60;99.90;;;;;;5153505;27;19931;-79
2022/01/22 08:44:02;;;;;;;;;;;6.60;99.90;;;;;;5141919;27;19915;-77
2022/01/22 08:46:27;;;;;;;;;;;6.70;99.90;;;;;;5116060;27;20002;-75
2022/01/22 08:48:54;;;;;;;;;;;6.70;99.90;;;;;;5133232;27;20006;-77
2022/01/22 08:51:19;;;;;;;;;;;6.70;99.90;;;;;;5134414;27;19916;-77
2022/01/22 08:53:46;;;;;;;;;;;6.70;99.90;;;;;;5133169;27;19911;-76
2022/01/22 08:56:11;;;;;;;;;;;6.80;99.90;;;;;;5133490;27;19918;-77
2022/01/22 08:58:37;;;;;;;;;;;6.80;99.90;;;;;;5134265;27;20356;-77
2022/01/22 09:01:03;;;;;;;;;;;6.80;99.90;;;;;;5133230;27;19979;-77
2022/01/22 09:03:29;;;;;;;;;;;6.80;99.90;;;;;;5134031;27;19908;-77
2022/01/22 09:05:55;;;;;;;;;;;6.90;99.90;;;;;;5133369;27;19907;-76
2022/01/22 09:08:27;;;;;;;;;;;6.80;99.90;;;;;;5115509;27;19908;-77
2022/01/22 09:10:53;;;;;;;;;;;6.90;99.90;;;;;;5133113;27;20379;-76
2022/01/22 09:13:19;;;;;;;;;;;6.90;99.90;;;;;;5134009;27;20360;-77
2022/01/22 09:15:45;;;;;;;;;;;6.90;99.90;;;;;;5134080;27;19908;-77
2022/01/22 09:18:11;;;;;;;;;;;6.90;99.90;;;;;;5132036;27;19912;-77
2022/01/22 09:23:02;;;;;;;;;;;7.00;99.90;;;;;;5126334;27;19908;-77
2022/01/22 09:25:28;;;;;;;;;;;7.00;99.90;;;;;;5125330;27;19968;-76
2022/01/22 09:27:54;;;;;;;;;;;6.90;99.90;;;;;;5114510;28;19912;-79
2022/01/22 09:30:19;;;;;;;;;;;6.90;99.90;;;;;;5121805;27;19912;-79
2022/01/22 09:32:45;;;;;;;;;;;6.90;99.90;;;;;;5112629;28;19933;-79
2022/01/22 09:35:11;;;;;;;;;;;6.90;99.90;;;;;;5112751;28;20314;-78
2022/01/22 09:37:36;;;;;;;;;;;6.90;99.90;;;;;;5112835;28;19920;-79
2022/01/22 09:40:02;;;;;;;;;;;6.80;99.90;;;;;;5112164;28;19930;-78
2022/01/22 09:42:28;;;;;;;;;;;6.80;99.90;;;;;;5113020;28;19908;-78
2022/01/22 09:44:53;;;;;;;;;;;6.80;99.90;;;;;;5113678;27;20289;-78
2022/01/22 09:47:20;;;;;;;;;;;6.80;99.90;;;;;;5127035;27;19915;-78
2022/01/22 09:49:46;;;;;;;;;;;6.90;99.90;;;;;;5113837;27;19933;-78
2022/01/22 09:52:13;;;;;;;;;;;6.90;99.90;;;;;;5131460;27;20315;-78
2022/01/22 09:54:39;;;;;;;;;;;6.90;99.90;;;;;;5132723;27;19914;-77
2022/01/22 09:57:05;;;;;;;;;;;6.90;99.90;;;;;;5132956;27;19914;-78
2022/01/22 09:59:31;;;;;;;;;;;7.00;99.90;;;;;;5133244;27;20275;-77
2022/01/22 10:02:17;;;;;;;;;;;7.00;99.90;;;;;;5131913;27;20002;-77
2022/01/22 10:04:48;;;;;;;;;;;7.00;99.90;;;;;;5097650;28;19908;-77
2022/01/22 10:07:18;;;;;;;;;;;6.90;99.90;;;;;;5132559;28;19911;-78
2022/01/22 10:09:56;;;;;;;;;;;7.00;99.90;;;;;;5114097;28;20364;-78
2022/01/22 10:12:22;;;;;;;;;;;7.00;99.90;;;;;;5131017;28;19912;-78
2022/01/22 10:15:05;;;;;;;;;;;7.10;99.90;;;;;;5114558;28;20271;-78
2022/01/22 10:17:43;;;;;;;;;;;7.10;99.90;;;;;;5132832;28;20206;-78
2022/01/22 10:20:29;;;;;;;;;;;7.20;99.90;;;;;;5131941;28;19908;-79
2022/01/22 10:23:03;;;;;;;;;;;7.20;99.90;;;;;;5131409;28;19955;-76
2022/01/22 10:25:33;;;;;;;;;;;7.30;99.90;;;;;;5131934;28;19911;-77
2022/01/22 10:28:03;;;;;;;;;;;7.30;99.90;;;;;;5126436;28;20335;-76
2022/01/22 10:30:37;;;;;;;;;;;7.40;99.90;;;;;;5133085;28;19918;-77
2022/01/22 10:33:28;;;;;;;;;;;7.40;99.90;;;;;;5132180;28;19911;-77
2022/01/22 10:36:06;;;;;;;;;;;7.50;99.90;;;;;;5134220;28;19938;-77
2022/01/22 10:38:49;;;;;;;;;;;7.60;99.90;;;;;;5133203;28;19994;-77
2022/01/22 10:41:16;;;;;;;;;;;7.60;99.90;;;;;;5132002;28;19953;-77
2022/01/22 10:43:53;;;;;;;;;;;7.70;99.90;;;;;;5118041;27;20010;-77
2022/01/22 10:46:30;;;;;;;;;;;7.70;99.90;;;;;;5136729;27;19908;-77
2022/01/22 10:48:56;;;;;;;;;;;7.70;99.90;;;;;;5135924;27;20002;-75
2022/01/22 10:51:22;;;;;;;;;;;7.80;99.90;;;;;;5136649;27;20093;-76
2022/01/22 10:53:59;;;;;;;;;;;7.80;99.90;;;;;;5136437;27;19907;-76
2022/01/22 10:56:25;;;;;;;;;;;7.70;99.90;;;;;;5136670;27;19915;-76
2022/01/22 10:59:00;;;;;;;;;;;7.80;99.90;;;;;;5136335;27;20007;-77
2022/01/22 11:01:30;;;;;;;;;;;7.80;99.90;;;;;;5136515;27;19957;-77
2022/01/22 11:04:02;;;;;;;;;;;7.80;99.90;;;;;;5135793;27;20006;-76
2022/01/22 11:06:27;;;;;;;;;;;7.80;99.90;;;;;;5136596;27;20441;-77
2022/01/22 11:08:56;;;;;;;;;;;7.80;99.90;;;;;;5136176;27;19907;-76
2022/01/22 11:11:22;;;;;;;;;;;7.90;99.90;;;;;;5135878;27;19911;-77
2022/01/22 11:13:48;;;;;;;;;;;7.90;99.90;;;;;;5136517;27;20002;-77
2022/01/22 11:16:14;;;;;;;;;;;8.00;99.90;;;;;;5135745;27;20246;-77
2022/01/22 11:18:42;;;;;;;;;;;8.00;99.90;;;;;;5136557;27;19907;-77
2022/01/22 11:21:08;;;;;;;;;;;8.00;99.90;;;;;;5135467;27;19907;-77
2022/01/22 11:23:34;;;;;;;;;;;8.00;99.90;;;;;;5138451;27;19914;-77
2022/01/22 11:26:00;;;;;;;;;;;8.10;99.90;;;;;;5137423;27;19908;-76
2022/01/22 11:28:26;;;;;;;;;;;8.10;99.90;;;;;;5136117;27;19955;-77
2022/01/22 11:30:52;;;;;;;;;;;8.20;99.90;;;;;;5136063;27;20314;-77
2022/01/22 11:33:19;;;;;;;;;;;8.10;99.90;;;;;;5135398;27;20080;-77
2022/01/22 11:35:48;;;;;;;;;;;8.20;99.90;;;;;;5135914;27;19986;-76
2022/01/22 11:38:16;;;;;;;;;;;8.30;99.90;;;;;;5135213;27;19954;-76
2022/01/22 11:40:43;;;;;;;;;;;8.30;99.90;;;;;;5117432;27;19991;-76
2022/01/22 11:43:14;;;;;;;;;;;8.30;99.90;;;;;;5134961;27;19915;-76
2022/01/22 11:45:43;;;;;;;;;;;8.40;99.90;;;;;;5135878;27;19915;-76
2022/01/22 11:48:28;;;;;;;;;;;8.40;99.90;;;;;;5134588;27;19942;-77
2022/01/22 11:50:55;;;;;;;;;;;8.50;99.90;;;;;;5134594;27;19923;-76
2022/01/22 11:53:22;;;;;;;;;;;8.40;99.90;;;;;;5134332;27;19918;-76
2022/01/22 11:56:06;;;;;;;;;;;8.40;99.90;;;;;;5132538;27;20481;-76
2022/01/22 11:58:32;;;;;;;;;;;8.40;99.90;;;;;;5135020;27;20364;-76
2022/01/22 12:00:58;;;;;;;;;;;8.40;99.90;;;;;;5135182;27;19919;-76
2022/01/22 12:03:23;;;;;;;;;;;8.40;99.90;;;;;;5135457;27;19998;-76
2022/01/22 12:05:49;;;;;;;;;;;8.40;99.90;;;;;;5135113;27;19911;-77
2022/01/22 12:08:15;;;;;;;;;;;8.40;99.90;;;;;;5135019;27;19907;-77
2022/01/22 12:10:43;;;;;;;;;;;8.40;99.90;;;;;;5134028;27;20367;-77
2022/01/22 12:16:40;;;;;;;;;;;8.30;99.90;;;;;;5087749;27;20401;-77
2022/01/22 12:19:26;;;;;;;;;;;8.30;99.90;;;;;;5132875;27;19931;-77
2022/01/22 12:21:52;;;;;;;;;;;8.30;99.90;;;;;;5114333;27;20288;-76
2022/01/22 12:24:29;;;;;;;;;;;8.30;99.90;;;;;;5133157;27;19918;-76
2022/01/22 12:26:59;;;;;;;;;;;8.30;99.90;;;;;;5116460;27;19907;-77
2022/01/22 12:29:29;;;;;;;;;;;8.20;99.90;;;;;;5133973;27;19912;-76
2022/01/22 12:32:25;;;;;;;;;;;8.20;99.90;;;;;;5134245;27;19912;-76
2022/01/22 12:34:58;;;;;;;;;;;8.10;99.90;;;;;;5131829;27;19918;-77
2022/01/22 12:37:25;;;;;;;;;;;8.10;99.90;;;;;;5133343;27;19911;-77
2022/01/22 12:39:54;;;;;;;;;;;8.10;99.90;;;;;;5116042;27;19911;-76
2022/01/22 12:42:34;;;;;;;;;;;8.10;99.90;;;;;;5133422;27;19973;-77
2022/01/22 12:45:02;;;;;;;;;;;8.00;99.90;;;;;;5115555;27;19907;-78
2022/01/22 12:47:28;;;;;;;;;;;8.00;99.90;;;;;;5134032;27;19908;-78
2022/01/22 12:50:01;;;;;;;;;;;8.00;99.90;;;;;;5133454;27;19927;-78
2022/01/22 12:52:27;;;;;;;;;;;8.10;99.90;;;;;;5133670;27;19914;-78
2022/01/22 12:54:57;;;;;;;;;;;8.10;99.90;;;;;;5133334;27;19911;-78
2022/01/22 12:57:25;;;;;;;;;;;8.10;99.90;;;;;;5133087;27;19967;-78
2022/01/22 12:59:50;;;;;;;;;;;8.10;99.90;;;;;;5133831;27;19908;-77
2022/01/22 13:02:16;;;;;;;;;;;8.10;99.90;;;;;;5132964;27;20026;-77
2022/01/22 13:04:55;;;;;;;;;;;8.10;99.90;;;;;;5133611;27;19907;-77
2022/01/22 13:07:21;;;;;;;;;;;8.10;99.90;;;;;;5131859;27;19994;-78
2022/01/22 13:09:47;;;;;;;;;;;8.10;99.90;;;;;;5133557;27;20451;-79
2022/01/22 13:12:13;;;;;;;;;;;8.10;99.90;;;;;;5114348;27;20274;-79
2022/01/22 13:14:39;;;;;;;;;;;8.10;99.90;;;;;;5132866;27;19911;-79
2022/01/22 13:17:10;;;;;;;;;;;8.10;99.90;;;;;;5131831;27;19907;-79
2022/01/22 13:19:38;;;;;;;;;;;8.20;99.90;;;;;;5132853;27;20261;-79
2022/01/22 13:22:03;;;;;;;;;;;8.20;99.90;;;;;;5132387;27;19954;-77
2022/01/22 13:24:30;;;;;;;;;;;8.20;99.90;;;;;;5133241;27;20368;-78
2022/01/22 13:27:00;;;;;;;;;;;8.20;99.90;;;;;;5114713;27;19908;-78
2022/01/22 13:29:25;;;;;;;;;;;8.30;99.90;;;;;;5132918;27;19973;-79
2022/01/22 13:34:57;;;;;;;;;;;8.40;99.90;;;;;;5132539;27;19929;-79
2022/01/22 13:47:52;;;;;;;;;;;8.60;99.90;;;;;;5132325;27;20010;-77
2022/01/22 13:50:17;;;;;;;;;;;8.50;99.90;;;;;;5113865;27;20269;-78
2022/01/22 13:52:44;;;;;;;;;;;8.60;99.90;;;;;;5113650;27;19919;-78
2022/01/22 13:55:11;;;;;;;;;;;8.60;99.90;;;;;;5131381;27;19907;-78
2022/01/22 13:57:37;;;;;;;;;;;8.60;99.90;;;;;;5132111;27;19939;-78
2022/01/22 14:00:14;;;;;;;;;;;8.60;99.90;;;;;;5131877;27;20336;-77
2022/01/22 14:05:25;;;;;;;;;;;8.60;99.90;;;;;;5131968;28;19914;-78
2022/01/22 14:07:57;;;;;;;;;;;8.60;99.90;;;;;;5132834;28;20276;-77
2022/01/22 14:10:25;;;;;;;;;;;8.60;99.90;;;;;;5131965;28;19912;-78
2022/01/22 14:12:54;;;;;;;;;;;8.60;99.90;;;;;;5132661;28;19926;-78
2022/01/22 14:15:26;;;;;;;;;;;8.50;99.90;;;;;;5112943;28;19914;-78
2022/01/22 14:17:53;;;;;;;;;;;8.50;99.90;;;;;;5134141;27;19907;-78
2022/01/22 14:20:22;;;;;;;;;;;8.50;99.90;;;;;;5135647;27;19953;-78
2022/01/22 14:22:52;;;;;;;;;;;8.50;99.90;;;;;;5136916;27;19911;-78
2022/01/22 14:25:18;;;;;;;;;;;8.50;99.90;;;;;;5134882;27;20372;-79
2022/01/22 14:27:53;;;;;;;;;;;8.50;99.90;;;;;;5136777;27;19964;-78
2022/01/22 14:30:35;;;;;;;;;;;8.50;99.90;;;;;;5135655;27;19916;-78
2022/01/22 14:33:01;;;;;;;;;;;8.60;99.90;;;;;;5136334;27;19998;-79
2022/01/22 14:35:27;;;;;;;;;;;8.60;99.90;;;;;;5135353;27;19950;-79
2022/01/22 14:37:56;;;;;;;;;;;8.50;99.90;;;;;;5136488;27;20320;-77
2022/01/22 14:45:57;;;;;;;;;;;8.50;99.90;;;;;;5136532;27;19956;-77
2022/01/22 14:48:23;;;;;;;;;;;8.50;99.90;;;;;;5134734;27;19926;-77
2022/01/22 14:50:49;;;;;;;;;;;8.50;99.90;;;;;;5135945;27;19915;-78
2022/01/22 14:53:14;;;;;;;;;;;8.50;99.90;;;;;;5135438;27;20279;-78
2022/01/22 14:55:50;;;;;;;;;;;8.50;99.90;;;;;;5136033;27;20355;-79
2022/01/22 14:58:16;;;;;;;;;;;8.50;99.90;;;;;;5135518;27;19921;-78
2022/01/22 15:00:41;;;;;;;;;;;8.50;99.90;;;;;;5135800;27;20006;-77
2022/01/22 15:03:07;;;;;;;;;;;8.50;99.90;;;;;;5135206;27;20008;-75
2022/01/22 15:05:33;;;;;;;;;;;8.50;99.90;;;;;;5136892;27;20340;-77
2022/01/22 15:07:59;;;;;;;;;;;8.50;99.90;;;;;;5136366;27;19908;-77
2022/01/22 15:10:25;;;;;;;;;;;8.60;99.90;;;;;;5156608;27;19935;-77
2022/01/22 15:12:51;;;;;;;;;;;8.60;99.90;;;;;;5158196;27;19911;-77
2022/01/22 15:15:19;;;;;;;;;;;8.60;99.90;;;;;;5156712;27;19932;-78
2022/01/22 15:20:14;;;;;;;;;;;8.60;99.90;;;;;;5136211;27;19908;-77
2022/01/22 15:22:39;;;;;;;;;;;8.60;99.90;;;;;;5137107;27;19915;-77
2022/01/22 15:25:05;;;;;;;;;;;8.60;99.90;;;;;;5136632;27;19937;-76
2022/01/22 15:27:31;;;;;;;;;;;8.60;99.90;;;;;;5136039;27;20352;-77
2022/01/22 15:30:10;;;;;;;;;;;8.60;99.90;;;;;;5134973;27;19927;-78
2022/01/22 15:35:04;;;;;;;;;;;8.50;99.90;;;;;;5136132;27;19914;-79
2022/01/22 15:37:30;;;;;;;;;;;8.50;99.90;;;;;;5135211;27;19907;-78
2022/01/22 15:39:56;;;;;;;;;;;8.50;99.90;;;;;;5136053;27;19918;-78
2022/01/22 15:42:21;;;;;;;;;;;8.50;99.90;;;;;;5135229;27;19907;-77
2022/01/22 15:44:47;;;;;;;;;;;8.50;99.90;;;;;;5136024;27;19911;-78
2022/01/22 15:47:12;;;;;;;;;;;8.40;99.90;;;;;;5135090;27;20331;-77
2022/01/22 15:49:44;;;;;;;;;;;8.40;99.90;;;;;;5117329;27;20015;-77
2022/01/22 15:52:10;;;;;;;;;;;8.40;99.90;;;;;;5134926;27;19915;-76
2022/01/22 15:54:36;;;;;;;;;;;8.40;99.90;;;;;;5135695;27;19915;-77
2022/01/22 15:57:05;;;;;;;;;;;8.40;99.90;;;;;;5135529;27;19907;-77
2022/01/22 15:59:30;;;;;;;;;;;8.40;99.90;;;;;;5134857;27;19938;-77
2022/01/22 16:01:56;;;;;;;;;;;8.40;99.90;;;;;;5135542;27;20248;-77
2022/01/22 16:04:21;;;;;;;;;;;8.40;99.90;;;;;;5134791;27;19930;-78
2022/01/22 16:07:01;;;;;;;;;;;8.40;99.90;;;;;;5135247;27;19919;-78
2022/01/22 16:09:30;;;;;;;;;;;8.40;99.90;;;;;;5134587;27;20447;-77
2022/01/22 16:11:57;;;;;;;;;;;8.40;99.90;;;;;;5135615;27;19908;-78
2022/01/22 16:14:22;;;;;;;;;;;8.40;99.90;;;;;;5134132;27;20232;-78
2022/01/22 16:16:48;;;;;;;;;;;8.40;99.90;;;;;;5134600;27;19908;-78
2022/01/22 16:19:15;;;;;;;;;;;8.40;99.90;;;;;;5134094;27;19908;-77
2022/01/22 16:21:42;;;;;;;;;;;8.40;99.90;;;;;;5134565;27;19911;-78
2022/01/22 16:24:08;;;;;;;;;;;8.30;99.90;;;;;;5134320;27;19964;-78
2022/01/22 16:26:34;;;;;;;;;;;8.30;99.90;;;;;;5133912;27;19908;-78
2022/01/22 16:28:59;;;;;;;;;;;8.30;99.90;;;;;;5134291;27;20317;-78
2022/01/22 16:31:26;;;;;;;;;;;8.30;99.90;;;;;;5133653;27;19966;-78
2022/01/22 16:33:52;;;;;;;;;;;8.30;99.90;;;;;;5134496;27;20331;-78
2022/01/22 16:36:18;;;;;;;;;;;8.30;99.90;;;;;;5133460;27;19942;-78
2022/01/22 16:38:45;;;;;;;;;;;8.30;99.90;;;;;;5134127;27;19914;-78
2022/01/22 16:41:11;;;;;;;;;;;8.30;99.90;;;;;;5133511;27;19908;-77
2022/01/22 16:43:37;;;;;;;;;;;8.30;99.90;;;;;;5115079;27;20000;-79
2022/01/22 16:46:22;;;;;;;;;;;8.30;99.90;;;;;;5133508;27;19911;-78
2022/01/22 16:51:36;;;;;;;;;;;8.30;99.90;;;;;;5133039;27;19921;-78